Weather reports worldwide

Advertisment
Zugspitze, Germany (10961): temperature & dewpoint: 10.01.2018 20:00:00 - 16.01.2018 20:00:00 (CET)Zugspitze, Germany (10961): wind speed & gusts: 10.01.2018 20:00:00 - 16.01.2018 20:00:00 (CET)Zugspitze, Germany (10961): wind direction: 10.01.2018 20:00:00 - 16.01.2018 20:00:00 (CET)Zugspitze, Germany (10961): visibility: 10.01.2018 20:00:00 - 16.01.2018 20:00:00 (CET)Zugspitze, Germany (10961): sunshine duration: 10.01.2018 20:00:00 - 16.01.2018 20:00:00 (CET)
Date & Time tt [°C] td [°C] ff [km/h] ff [kn] fx [km/h] fx [kn] dd vv [km] sd [min]
16.01.2018 20:00:00 -10,1 -11,4 50 27 108 58 N 0,1 0
16.01.2018 19:00:00 -10,2 -11,5 32 18 99 54 N 0,1 0
16.01.2018 18:00:00 -9,5 -10,6 36 20 72 39 WNW 0,1 0
16.01.2018 17:00:00 -9,3 -10,5 49 26 112 61 NW 0,1 0
16.01.2018 16:00:00 -9,3 -10,4 61 33 143 77 W 0,1 0
16.01.2018 15:00:00 -9,3 -10,4 69 38 119 64 W 0,1 0
16.01.2018 14:00:00 -9,2 -10,3 70 38 122 66 W 0,1 0
16.01.2018 13:00:00 -9,6 -10,9 62 33 134 73 NW 0,1 0
16.01.2018 12:00:00 -9,9 -11,2 63 34 130 70 NW 0,1 0
16.01.2018 11:00:00 -9,5 -10,7 67 36 124 67 W 0,1 3
16.01.2018 10:00:00 -9,5 -10,6 87 47 119 64 W 0,1 0
16.01.2018 09:00:00 -9,5 -10,7 66 36 121 66 W 0,1 0
16.01.2018 08:00:00 -9,7 -10,8 75 41 133 72 W 0,1 0
16.01.2018 07:00:00 -9,7 -10,9 77 41 125 68 W 0,1 0
16.01.2018 06:00:00 -9,6 -10,9 101 54 142 77 W 0,1 0
16.01.2018 05:00:00 -9,3 -10,5 70 38 121 65 W - 0
16.01.2018 04:00:00 -9,3 -10,5 83 45 133 72 W - 0
16.01.2018 03:00:00 -9,3 -10,5 89 48 124 67 WSW - 0
16.01.2018 02:00:00 -9,4 -10,7 78 42 119 64 WSW - 0
16.01.2018 01:00:00 -9,3 -10,5 79 42 125 68 WSW - 0
16.01.2018 00:00:00 -9,8 -11,1 89 48 121 66 WSW - 0
15.01.2018 23:00:00 -9,9 -11,3 85 46 108 58 WSW - 0
15.01.2018 22:00:00 -9,9 -15,4 45 24 96 52 SSW - 0
15.01.2018 21:00:00 -8,6 -16,8 45 24 75 41 WSW 82 0
15.01.2018 20:00:00 -8,7 -15,3 46 25 69 37 WSW 82 0
15.01.2018 19:00:00 -9,6 -15,1 52 28 68 37 WSW 82 0
15.01.2018 18:00:00 -10,1 -16,4 48 26 71 39 SW 82 0
15.01.2018 17:00:00 -11,5 -19,3 52 28 68 37 WSW 82 6
15.01.2018 16:00:00 -11,9 -18,6 49 27 61 33 WSW 82 0
15.01.2018 15:00:00 -12,6 -17,0 45 24 61 33 W 82 43
15.01.2018 14:00:00 -11,7 -16,5 43 23 58 31 WSW 82 60
15.01.2018 13:00:00 -12,4 -17,3 42 23 53 28 W 82 60
15.01.2018 12:00:00 -12,6 -16,6 23 13 49 26 W 82 60
15.01.2018 11:00:00 -13,2 -16,7 22 12 41 22 W 82 60
15.01.2018 10:00:00 -13,2 -15,8 23 12 44 24 NNW 82 50
15.01.2018 09:00:00 -13,7 -15,3 27 15 40 22 NNW 82 1
15.01.2018 08:00:00 -13,7 -15,2 29 16 41 22 NNW 0,2 0
15.01.2018 07:00:00 -13,6 -15,1 32 17 44 24 N 82 0
15.01.2018 06:00:00 -13,6 -15,2 32 18 48 26 N 82 0
15.01.2018 05:00:00 -13,6 -15,1 30 16 45 24 N - 0
15.01.2018 04:00:00 -13,6 -15,1 34 18 48 26 N - 0
15.01.2018 03:00:00 -13,4 -15,0 35 19 52 28 N - 0
15.01.2018 02:00:00 -13,5 -15,0 24 13 42 23 N - 0
15.01.2018 01:00:00 -13,5 -15,1 26 14 53 28 N - 0
15.01.2018 00:00:00 -13,2 -14,7 33 18 54 29 N - 0
14.01.2018 23:00:00 -12,9 -14,4 34 18 50 27 N - 0
14.01.2018 22:00:00 -12,5 -14,0 36 19 54 29 N - 0
14.01.2018 21:00:00 -12,5 -14,0 33 18 56 31 N 0,1 0
14.01.2018 20:00:00 -12,2 -13,8 34 19 49 27 N 0,1 0
14.01.2018 19:00:00 -12,4 -14,0 27 15 44 24 NNW 0,1 0
14.01.2018 18:00:00 -12,1 -13,5 33 18 43 23 N 0,1 0
14.01.2018 17:00:00 -13,0 -15,3 22 12 37 20 NNW 0,6 10
14.01.2018 16:00:00 -12,5 -16,1 22 12 39 21 NW 82 58
14.01.2018 15:00:00 -12,0 -16,3 23 12 43 23 NW 82 60
14.01.2018 14:00:00 -11,3 -16,8 28 15 48 26 NNW 82 60
14.01.2018 13:00:00 -11,4 -18,9 24 13 45 24 NNW 82 60
14.01.2018 12:00:00 -11,2 -18,1 18 10 40 21 NW 82 60
14.01.2018 11:00:00 -11,2 -18,2 25 13 39 21 W 82 60
14.01.2018 10:00:00 -11,4 -18,5 18 10 31 17 NNW 82 60
14.01.2018 09:00:00 -11,5 -19,3 22 12 32 18 NNW 82 46
14.01.2018 08:00:00 -12,0 -18,4 24 13 31 17 NNW 82 0
14.01.2018 07:00:00 -11,7 -18,0 23 12 32 18 WNW 82 0
14.01.2018 06:00:00 -11,2 -18,3 21 12 30 16 NNW 80 0
14.01.2018 05:00:00 -10,3 -19,2 19 10 25 14 NNW - 0
14.01.2018 04:00:00 -10,2 -20,7 14 8 22 12 WNW - 0
14.01.2018 03:00:00 -9,2 -15,2 16 9 18 10 W - 0
14.01.2018 02:00:00 -8,8 -15,6 12 7 13 7 W - 0
14.01.2018 01:00:00 -8,7 -15,8 6 3 9 5 NNW - 0
14.01.2018 00:00:00 -8,4 -15,8 5 3 11 6 SW - 0
13.01.2018 23:00:00 -9,3 -15,1 12 7 14 8 SSE - 0
13.01.2018 22:00:00 -9,6 -15,0 13 7 18 10 SE - 0
13.01.2018 21:00:00 -9,4 -14,5 14 8 20 11 SE 82 0
13.01.2018 20:00:00 -9,5 -13,8 17 9 19 11 SE 82 0
13.01.2018 19:00:00 -8,2 -15,5 6 3 14 8 ENE 82 0
13.01.2018 18:00:00 -8,8 -14,5 11 6 19 11 SSE 82 0
13.01.2018 17:00:00 -8,0 -15,0 13 7 17 9 S 82 60
13.01.2018 16:00:00 -5,6 -16,4 6 4 12 7 SW 82 60
13.01.2018 15:00:00 -6,6 -15,0 12 6 21 11 SSE 82 60
13.01.2018 14:00:00 -6,0 -14,9 18 10 26 14 SE 82 60
13.01.2018 13:00:00 -6,6 -19,2 22 12 28 15 SE 82 60
13.01.2018 12:00:00 -7,0 -17,3 15 8 22 12 SE 82 60
13.01.2018 11:00:00 -7,7 -20,3 17 9 21 12 SE 82 60
13.01.2018 10:00:00 -7,2 -23,1 9 5 16 9 E 82 60
13.01.2018 09:00:00 -8,2 -24,2 9 5 15 8 ENE 82 46
13.01.2018 08:00:00 -8,5 -22,9 9 5 15 8 N 82 0
13.01.2018 07:00:00 -8,6 -22,1 11 6 16 8 N 82 0
13.01.2018 06:00:00 -8,8 -21,5 7 4 12 7 N 82 0
13.01.2018 05:00:00 -8,7 -22,2 9 5 11 6 NNE - 0
13.01.2018 04:00:00 -8,2 -22,5 8 4 11 6 ENE - 0
13.01.2018 03:00:00 -8,8 -22,6 10 5 21 12 E - 0
13.01.2018 02:00:00 -8,9 -21,6 14 7 20 11 E - 0
13.01.2018 01:00:00 -9,6 -20,2 18 10 25 13 ESE - 0
13.01.2018 00:00:00 -9,7 -20,2 21 12 25 14 ESE - 0
12.01.2018 23:00:00 -9,6 -20,5 15 8 27 14 E - 0
12.01.2018 22:00:00 -10,1 -19,3 24 13 29 16 ESE - 0
12.01.2018 21:00:00 -10,2 -19,2 23 13 29 16 ESE 82 0
12.01.2018 20:00:00 -10,2 -20,2 23 13 31 17 E 82 0
12.01.2018 19:00:00 -10,5 -19,4 24 13 33 18 E 82 0
12.01.2018 18:00:00 -10,9 -18,6 22 12 32 17 E 82 0
12.01.2018 17:00:00 -10,6 -18,3 24 13 33 18 ESE 82 51
12.01.2018 16:00:00 -10,7 -15,9 23 12 31 17 E 82 60
12.01.2018 15:00:00 -10,2 -16,2 20 11 29 16 E 80 59
12.01.2018 14:00:00 -10,9 -13,8 22 12 41 22 E 0,3 60
12.01.2018 13:00:00 -11,2 -14,7 23 12 38 21 ESE 0,7 57
12.01.2018 12:00:00 -11,3 -13,0 24 13 42 23 SE 0,7 53
12.01.2018 11:00:00 -11,6 -13,3 27 15 49 26 ESE 0,3 58
12.01.2018 10:00:00 -11,8 -13,4 28 15 52 28 ESE 80 59
12.01.2018 09:00:00 -11,9 -13,6 26 14 55 30 ESE 80 44
12.01.2018 08:00:00 -12,2 -13,5 32 17 54 29 SE 1,8 0
12.01.2018 07:00:00 -12,2 -13,7 28 15 47 26 ESE 80 0
12.01.2018 06:00:00 -12,1 -13,5 28 15 56 31 SE 80 0
12.01.2018 05:00:00 -11,9 -13,4 28 15 46 25 SE - 0
12.01.2018 04:00:00 -12,0 -13,7 25 13 45 24 SE - 0
12.01.2018 03:00:00 -11,9 -13,4 32 17 45 24 SE - 0
12.01.2018 02:00:00 -11,9 -13,5 28 15 45 24 ESE - 0
12.01.2018 01:00:00 -11,6 -12,9 24 13 44 24 SE - 0
12.01.2018 00:00:00 -11,6 -13,1 27 15 41 22 SE - 0
11.01.2018 23:00:00 -10,6 -11,6 15 8 21 12 SE - 0
11.01.2018 22:00:00 -10,6 -11,5 7 4 13 7 ESE - 0
11.01.2018 21:00:00 -10,6 -11,4 10 5 17 9 SE 0,1 0
11.01.2018 20:00:00 -10,6 -11,3 8 5 18 10 ESE 0,1 0
11.01.2018 19:00:00 -10,5 -11,4 9 5 17 9 E 0,1 0
11.01.2018 18:00:00 -10,5 -11,3 6 4 20 11 E 0,1 0
11.01.2018 17:00:00 -10,7 -11,7 9 5 26 14 N 0,1 0
11.01.2018 16:00:00 -11,3 -12,8 12 6 26 14 NNE 0,3 0
11.01.2018 15:00:00 -10,6 -11,7 8 4 27 15 ENE 0,1 0
11.01.2018 14:00:00 -11,6 -13,2 10 5 16 9 N 0,1 0
11.01.2018 13:00:00 -10,1 -11,4 5 3 19 11 NE 0,1 0
11.01.2018 12:00:00 -10,2 -11,4 8 5 14 7 ESE 0,1 0
11.01.2018 11:00:00 -10,5 -11,6 8 5 26 14 SE 0,2 0
11.01.2018 10:00:00 -10,7 -11,9 16 9 29 16 SE 0,6 0
11.01.2018 09:00:00 -11,1 -12,2 13 7 31 17 ESE 0,4 0
11.01.2018 08:00:00 -11,3 -12,4 20 11 33 18 SE 0,3 0
11.01.2018 07:00:00 -11,3 -12,3 14 8 24 13 SE 0,1 0
11.01.2018 06:00:00 -11,2 -12,1 13 7 20 11 ESE 0,1 0
11.01.2018 05:00:00 -11,5 -12,4 13 7 17 9 ENE - 0
11.01.2018 04:00:00 -11,1 -13,5 13 7 18 10 E - 0
11.01.2018 03:00:00 -11,5 -14,2 10 5 16 9 ENE - 0
11.01.2018 02:00:00 -11,2 -15,2 10 6 16 9 N - 0
11.01.2018 01:00:00 -11,8 -13,1 13 7 19 10 N - 0
11.01.2018 00:00:00 -10,6 -16,5 16 9 19 10 N - 0
10.01.2018 23:00:00 -10,6 -16,3 13 7 16 9 N - 0
10.01.2018 22:00:00 -10,5 -16,1 9 5 14 8 N - 0
10.01.2018 21:00:00 -11,3 -13,6 12 6 16 8 NW 80 0
10.01.2018 20:00:00 -11,2 -14,2 9 5 16 8 NW 80 0

tt = temperature
td = dewpoint
ff = wind speed
fx = gusts
dd = wind direction
vv = visibility
sd = sunshine duration

Next stations